KMEH

Meacham Airport

Meacham, Oregon, USA
METAR KMEH 201556Z AUTO 00000KT 1 1/4SM HZ BKN027 OVC033 14/11 A3006 RMK AO2 SLP160 T01440111
Observed Flight Rules
Aug-20 @ 15:56 UTC (29 minutes ago) Instrument Flight Rules
Visibility Clouds Conditions
1 1/4 miles
  • Broken at 2,700' AGL
  • Overcast at 3,300' AGL
  • Haze
Temperatures Readings
Current 14°C / 57°F
Dewpoint 11°C / 52°F
Humidity 82%
Altimeter 30.06" Hg
Pressure 1016 hPa
Elevation 1136
METAR KMEH 201556Z AUTO 00000KT 1 1/4SM HZ BKN027 OVC033 14/11 A3006 RMK AO2 SLP160 T01440111
Observed Flight Rules
Aug-20 @ 15:56 UTC
(29 minutes ago)
IFR
Clouds
  • Broken at 2,700' AGL
  • Overcast at 3,300' AGL
Conditions
  • Haze
Temperature Dewpoint
14°C / 57°F 11°C / 52°F
Humidity Altimeter Pressure
82% 30.06" Hg 1016 hPa